createdAt,value
2018-06-12T00:00:55.785Z,0.00
2018-06-12T00:01:54.470Z,0.00
2018-06-12T00:02:55.356Z,0.00
2018-06-12T00:03:54.658Z,0.00
2018-06-12T00:04:54.326Z,0.00
2018-06-12T00:05:54.330Z,0.00
2018-06-12T00:06:54.334Z,0.00
2018-06-12T00:07:54.331Z,0.00
2018-06-12T00:08:54.335Z,0.00
2018-06-12T00:09:54.340Z,0.00
2018-06-12T00:10:54.342Z,0.00
2018-06-12T00:11:54.350Z,0.00
2018-06-12T00:12:54.354Z,0.00
2018-06-12T00:13:54.357Z,0.00
2018-06-12T00:14:54.354Z,0.00
2018-06-12T00:15:54.356Z,0.00
2018-06-12T00:16:54.360Z,0.00
2018-06-12T00:17:54.363Z,0.00
2018-06-12T00:18:54.387Z,0.00
2018-06-12T00:19:54.371Z,0.00
2018-06-12T00:20:54.371Z,0.00
2018-06-12T00:21:54.375Z,0.00
2018-06-12T00:22:54.378Z,0.00
2018-06-12T00:23:54.382Z,0.00
2018-06-12T00:24:54.389Z,0.00
2018-06-12T00:25:54.387Z,0.00
2018-06-12T00:26:54.391Z,0.00
2018-06-12T00:27:54.391Z,0.00
2018-06-12T00:28:54.394Z,0.00
2018-06-12T00:29:54.402Z,0.00
2018-06-12T00:30:54.401Z,0.00
2018-06-12T00:31:54.411Z,0.00
2018-06-12T00:32:54.409Z,0.00
2018-06-12T00:33:54.412Z,0.00
2018-06-12T00:34:54.414Z,0.00
2018-06-12T00:35:54.416Z,0.00
2018-06-12T00:36:54.418Z,0.00
2018-06-12T00:37:54.427Z,0.00
2018-06-12T00:38:54.424Z,0.00
2018-06-12T00:39:54.431Z,0.00
2018-06-12T00:40:54.431Z,0.00
2018-06-12T00:41:54.434Z,0.00
2018-06-12T00:42:54.439Z,0.00
2018-06-12T00:43:54.439Z,0.00
2018-06-12T00:44:54.445Z,0.00
2018-06-12T00:45:54.446Z,0.00
2018-06-12T00:46:54.449Z,0.00
2018-06-12T00:47:54.452Z,0.00
2018-06-12T00:48:54.453Z,0.00
2018-06-12T00:49:54.457Z,0.00
2018-06-12T00:50:54.463Z,0.00
2018-06-12T00:51:54.461Z,0.00
2018-06-12T00:52:54.465Z,0.00
2018-06-12T00:53:54.491Z,0.00
2018-06-12T00:54:54.473Z,0.00
2018-06-12T00:55:54.476Z,0.00
2018-06-12T00:56:54.475Z,0.00
2018-06-12T00:57:54.525Z,0.00
2018-06-12T00:58:54.484Z,0.00
2018-06-12T00:59:54.485Z,0.00
2018-06-12T01:00:54.486Z,0.00
2018-06-12T01:01:54.492Z,0.00
2018-06-12T01:02:54.495Z,0.00
2018-06-12T01:03:54.497Z,0.00
2018-06-12T01:04:54.504Z,0.00
2018-06-12T01:05:54.514Z,0.00
2018-06-12T01:06:54.505Z,0.00
2018-06-12T01:07:54.506Z,0.00
2018-06-12T01:08:54.508Z,0.00
2018-06-12T01:09:54.511Z,0.00
2018-06-12T01:10:54.515Z,0.00
2018-06-12T01:11:54.518Z,0.00
2018-06-12T01:12:54.520Z,0.00
2018-06-12T01:13:54.524Z,0.00
2018-06-12T01:14:54.527Z,0.00
2018-06-12T01:15:54.531Z,0.00
2018-06-12T01:16:54.532Z,0.00
2018-06-12T01:17:54.534Z,0.00
2018-06-12T01:18:54.537Z,0.00
2018-06-12T01:19:54.541Z,0.00
2018-06-12T01:20:54.543Z,0.00
2018-06-12T01:21:54.546Z,0.00
2018-06-12T01:22:54.549Z,0.00
2018-06-12T01:23:54.599Z,0.00
2018-06-12T01:24:54.586Z,0.00
2018-06-12T01:25:54.557Z,0.00
2018-06-12T01:26:54.560Z,0.00
2018-06-12T01:27:54.562Z,0.00
2018-06-12T01:28:54.566Z,0.00
2018-06-12T01:29:54.568Z,0.00
2018-06-12T01:30:54.573Z,0.00
2018-06-12T01:31:54.575Z,0.00
2018-06-12T01:32:54.577Z,0.00
2018-06-12T01:33:54.580Z,0.00
2018-06-12T01:34:54.585Z,0.00
2018-06-12T01:35:54.585Z,0.00
2018-06-12T01:36:54.588Z,0.00
2018-06-12T01:37:54.590Z,0.00
2018-06-12T01:38:54.592Z,0.00
2018-06-12T01:39:54.595Z,0.00
2018-06-12T01:40:54.597Z,0.00
2018-06-12T01:41:54.600Z,0.00
2018-06-12T01:42:54.602Z,0.00
2018-06-12T01:43:54.606Z,0.00
2018-06-12T01:44:54.607Z,0.00
2018-06-12T01:45:54.610Z,0.00
2018-06-12T01:46:54.616Z,0.00
2018-06-12T01:47:54.617Z,0.00
2018-06-12T01:48:54.618Z,0.00
2018-06-12T01:49:54.619Z,0.00
2018-06-12T01:50:54.622Z,0.00
2018-06-12T01:51:54.625Z,0.00
2018-06-12T01:52:54.638Z,0.00
2018-06-12T01:53:54.629Z,0.00
2018-06-12T01:54:54.641Z,0.00
2018-06-12T01:55:54.635Z,0.00
2018-06-12T01:56:54.637Z,0.00
2018-06-12T01:57:54.639Z,0.00
2018-06-12T01:58:54.642Z,0.00
2018-06-12T01:59:54.645Z,0.00
2018-06-12T02:00:54.647Z,0.00
2018-06-12T02:01:54.651Z,0.00
2018-06-12T02:02:54.653Z,0.00
2018-06-12T02:03:54.653Z,0.00
2018-06-12T02:04:54.659Z,0.00
2018-06-12T02:05:54.660Z,0.00
2018-06-12T02:06:54.661Z,0.00
2018-06-12T02:07:54.663Z,0.00
2018-06-12T02:08:54.666Z,0.00
2018-06-12T02:09:54.669Z,0.00
2018-06-12T02:10:54.672Z,0.00
2018-06-12T02:11:54.674Z,0.00
2018-06-12T02:12:54.687Z,0.00
2018-06-12T02:13:54.680Z,0.00
2018-06-12T02:14:54.682Z,0.00
2018-06-12T02:15:54.690Z,0.00
2018-06-12T02:16:54.686Z,0.00
2018-06-12T02:17:54.689Z,0.00
2018-06-12T02:18:54.692Z,0.00
2018-06-12T02:19:54.695Z,0.00
2018-06-12T02:20:54.696Z,0.00
2018-06-12T02:21:54.700Z,0.00
2018-06-12T02:22:54.702Z,0.00
2018-06-12T02:23:54.705Z,0.00
2018-06-12T02:24:54.706Z,0.00
2018-06-12T02:25:54.714Z,0.00
2018-06-12T02:26:54.713Z,0.00
2018-06-12T02:27:54.713Z,0.00
2018-06-12T02:28:54.715Z,0.00
2018-06-12T02:29:54.723Z,0.00
2018-06-12T02:30:54.727Z,0.00
2018-06-12T02:31:54.723Z,0.00
2018-06-12T02:32:54.727Z,0.00
2018-06-12T02:33:54.729Z,0.00
2018-06-12T02:34:54.740Z,0.00
2018-06-12T02:35:54.733Z,0.00
2018-06-12T02:36:54.738Z,0.00
2018-06-12T02:37:54.737Z,0.00
2018-06-12T02:38:54.757Z,0.00
2018-06-12T02:39:54.742Z,0.00
2018-06-12T02:40:54.745Z,0.00
2018-06-12T02:41:54.749Z,0.00
2018-06-12T02:42:54.749Z,0.00
2018-06-12T02:43:54.751Z,0.00
2018-06-12T02:44:54.755Z,0.00
2018-06-12T02:45:54.755Z,0.00
2018-06-12T02:46:54.760Z,0.00
2018-06-12T02:47:54.769Z,0.00
2018-06-12T02:48:54.765Z,0.00
2018-06-12T02:49:54.764Z,0.00
2018-06-12T02:50:54.769Z,0.00
2018-06-12T02:51:54.772Z,0.00
2018-06-12T02:52:54.772Z,0.00
2018-06-12T02:53:54.772Z,0.00
2018-06-12T02:54:54.775Z,0.00
2018-06-12T02:55:54.777Z,0.00
2018-06-12T02:56:54.784Z,0.00
2018-06-12T02:57:54.786Z,0.00
2018-06-12T02:58:54.785Z,0.00
2018-06-12T02:59:54.784Z,0.00
2018-06-12T03:00:54.786Z,0.00
2018-06-12T03:01:54.788Z,0.00
2018-06-12T03:02:54.791Z,0.00
2018-06-12T03:03:54.792Z,0.00
2018-06-12T03:04:54.796Z,0.00
2018-06-12T03:05:54.799Z,0.00
2018-06-12T03:06:54.800Z,0.00
2018-06-12T03:07:54.800Z,0.00
2018-06-12T03:08:54.802Z,0.00
2018-06-12T03:09:54.803Z,0.00
2018-06-12T03:10:54.807Z,0.00
2018-06-12T03:11:54.809Z,0.00
2018-06-12T03:12:54.809Z,0.00
2018-06-12T03:13:54.813Z,0.00
2018-06-12T03:14:54.825Z,0.00
2018-06-12T03:15:54.817Z,0.00
2018-06-12T03:16:54.816Z,0.00
2018-06-12T03:17:54.818Z,0.00
2018-06-12T03:18:54.831Z,0.00
2018-06-12T03:19:54.820Z,0.00
2018-06-12T03:20:54.825Z,0.00
2018-06-12T03:21:54.825Z,0.00
2018-06-12T03:22:54.830Z,0.00
2018-06-12T03:23:54.830Z,0.00
2018-06-12T03:24:54.834Z,0.00
2018-06-12T03:25:54.834Z,0.00
2018-06-12T03:26:54.857Z,0.00
2018-06-12T03:27:54.839Z,0.00
2018-06-12T03:28:54.838Z,0.00
2018-06-12T03:29:55.809Z,0.00
2018-06-12T03:30:54.843Z,0.00
2018-06-12T03:31:54.843Z,0.00
2018-06-12T03:32:54.847Z,5.63
2018-06-12T03:33:54.867Z,5.63
2018-06-12T03:34:54.851Z,5.63
2018-06-12T03:35:54.852Z,5.63
2018-06-12T03:36:54.852Z,5.63
2018-06-12T03:37:54.853Z,5.63
2018-06-12T03:38:54.856Z,5.63
2018-06-12T03:39:56.600Z,5.63
2018-06-12T03:40:54.864Z,5.63
2018-06-12T03:41:54.864Z,5.63
2018-06-12T03:42:54.861Z,5.63
2018-06-12T03:43:54.863Z,5.63
2018-06-12T03:44:54.865Z,5.63
2018-06-12T03:45:54.875Z,5.63
2018-06-12T03:46:54.868Z,5.63
2018-06-12T03:47:54.869Z,5.63
2018-06-12T03:48:54.869Z,5.63
2018-06-12T03:49:54.873Z,5.63
2018-06-12T03:50:54.875Z,5.63
2018-06-12T03:51:54.876Z,5.63
2018-06-12T03:52:54.875Z,5.63
2018-06-12T03:53:54.877Z,5.63
2018-06-12T03:54:54.885Z,5.63
2018-06-12T03:55:54.880Z,5.63
2018-06-12T03:56:54.918Z,5.63
2018-06-12T03:57:54.883Z,5.63
2018-06-12T03:58:54.888Z,5.63
2018-06-12T03:59:54.886Z,11.25
2018-06-12T04:00:54.893Z,11.25
2018-06-12T04:01:54.891Z,11.25
2018-06-12T04:02:54.892Z,11.25
2018-06-12T04:03:54.893Z,11.25
2018-06-12T04:04:54.896Z,11.25
2018-06-12T04:05:54.897Z,11.25
2018-06-12T04:06:54.897Z,11.25
2018-06-12T04:07:54.899Z,11.25
2018-06-12T04:08:54.905Z,11.25
2018-06-12T04:09:54.904Z,11.25
2018-06-12T04:10:54.904Z,11.25
2018-06-12T04:11:54.905Z,11.25
2018-06-12T04:12:54.909Z,11.25
2018-06-12T04:13:54.909Z,11.25
2018-06-12T04:14:54.924Z,16.88
2018-06-12T04:15:54.907Z,16.88
2018-06-12T04:16:54.910Z,16.88
2018-06-12T04:17:54.913Z,16.88
2018-06-12T04:18:54.919Z,16.88
2018-06-12T04:19:54.915Z,16.88
2018-06-12T04:20:54.915Z,11.25
2018-06-12T04:21:54.918Z,11.25
2018-06-12T04:22:54.927Z,16.88
2018-06-12T04:23:54.919Z,16.88
2018-06-12T04:24:54.921Z,16.88
2018-06-12T04:25:54.923Z,16.88
2018-06-12T04:26:54.931Z,16.88
2018-06-12T04:27:54.927Z,16.88
2018-06-12T04:28:54.926Z,16.88
2018-06-12T04:29:54.932Z,16.88
2018-06-12T04:30:54.929Z,16.88
2018-06-12T04:31:54.930Z,16.88
2018-06-12T04:32:54.933Z,16.88
2018-06-12T04:33:54.933Z,16.88
2018-06-12T04:34:54.936Z,16.88
2018-06-12T04:35:54.940Z,16.88
2018-06-12T04:36:54.939Z,16.88
2018-06-12T04:37:54.942Z,16.88
2018-06-12T04:38:54.944Z,16.88
2018-06-12T04:39:54.944Z,16.88
2018-06-12T04:40:54.952Z,16.88
2018-06-12T04:41:54.946Z,16.88
2018-06-12T04:42:54.950Z,16.88
2018-06-12T04:43:54.949Z,22.50
2018-06-12T04:44:54.949Z,22.50
2018-06-12T04:45:54.953Z,22.50
2018-06-12T04:46:54.994Z,22.50
2018-06-12T04:47:54.955Z,22.50
2018-06-12T04:48:54.959Z,22.50
2018-06-12T04:49:54.965Z,22.50
2018-06-12T04:50:54.970Z,22.50
2018-06-12T04:51:54.960Z,22.50
2018-06-12T04:52:54.964Z,22.50
2018-06-12T04:53:54.966Z,22.50
2018-06-12T04:54:54.967Z,22.50
2018-06-12T04:55:54.966Z,22.50
2018-06-12T04:56:54.973Z,22.50
2018-06-12T04:57:54.973Z,22.50
2018-06-12T04:58:54.971Z,22.50
2018-06-12T04:59:54.971Z,22.50
2018-06-12T05:00:54.973Z,22.50
2018-06-12T05:01:54.984Z,28.13
2018-06-12T05:02:54.976Z,28.13
2018-06-12T05:03:54.980Z,28.13
2018-06-12T05:04:54.978Z,28.13
2018-06-12T05:05:54.983Z,28.13
2018-06-12T05:06:54.981Z,28.13
2018-06-12T05:07:54.984Z,28.13
2018-06-12T05:08:54.982Z,28.13
2018-06-12T05:09:54.984Z,33.75
2018-06-12T05:10:55.012Z,33.75
2018-06-12T05:11:54.985Z,33.75
2018-06-12T05:12:55.001Z,33.75
2018-06-12T05:13:54.987Z,28.13
2018-06-12T05:14:55.037Z,28.13
2018-06-12T05:15:54.990Z,28.13
2018-06-12T05:16:55.022Z,28.13
2018-06-12T05:17:54.995Z,28.13
2018-06-12T05:18:54.995Z,28.13
2018-06-12T05:19:55.015Z,28.13
2018-06-12T05:20:55.000Z,28.13
2018-06-12T05:21:54.997Z,28.13
2018-06-12T05:22:54.996Z,28.13
2018-06-12T05:23:54.996Z,28.13
2018-06-12T05:24:55.004Z,28.13
2018-06-12T05:25:55.006Z,28.13
2018-06-12T05:26:55.000Z,28.13
2018-06-12T05:27:55.003Z,28.13
2018-06-12T05:28:55.004Z,28.13
2018-06-12T05:29:55.013Z,28.13
2018-06-12T05:30:55.006Z,33.75
2018-06-12T05:31:55.005Z,33.75
2018-06-12T05:32:55.008Z,33.75
2018-06-12T05:33:55.006Z,33.75
2018-06-12T05:34:55.008Z,33.75
2018-06-12T05:35:55.008Z,33.75
2018-06-12T05:36:55.010Z,39.38
2018-06-12T05:37:55.010Z,45.00
2018-06-12T05:38:55.012Z,45.00
2018-06-12T05:39:55.069Z,50.63
2018-06-12T05:40:55.013Z,56.25
2018-06-12T05:41:55.014Z,61.88
2018-06-12T05:42:55.016Z,61.88
2018-06-12T05:43:55.016Z,67.50
2018-06-12T05:44:55.024Z,67.50
2018-06-12T05:45:55.022Z,67.50
2018-06-12T05:46:55.025Z,73.13
2018-06-12T05:47:55.020Z,73.13
2018-06-12T05:48:55.021Z,78.75
2018-06-12T05:49:55.023Z,78.75
2018-06-12T05:50:55.025Z,84.38
2018-06-12T05:51:55.027Z,84.38
2018-06-12T05:52:55.026Z,84.38
2018-06-12T05:53:55.027Z,84.38
2018-06-12T05:54:55.029Z,78.75
2018-06-12T05:55:55.272Z,78.75
2018-06-12T05:56:55.032Z,78.75
2018-06-12T05:57:55.038Z,78.75
2018-06-12T05:58:55.038Z,78.75
2018-06-12T05:59:55.038Z,78.75
2018-06-12T06:00:55.038Z,78.75
2018-06-12T06:01:55.041Z,78.75
2018-06-12T06:02:55.043Z,78.75
2018-06-12T06:03:55.160Z,78.75
2018-06-12T06:04:55.045Z,78.75
2018-06-12T06:05:55.046Z,78.75
2018-06-12T06:06:55.047Z,78.75
2018-06-12T06:07:55.048Z,78.75
2018-06-12T06:08:55.050Z,78.75
2018-06-12T06:09:55.050Z,78.75
2018-06-12T06:10:55.055Z,73.13
2018-06-12T06:11:55.075Z,73.13
2018-06-12T06:12:55.055Z,73.13
2018-06-12T06:13:55.055Z,73.13
2018-06-12T06:14:55.057Z,84.38
2018-06-12T06:15:55.057Z,95.63
2018-06-12T06:16:55.058Z,106.88
2018-06-12T06:17:55.061Z,106.88
2018-06-12T06:18:55.061Z,112.50
2018-06-12T06:19:55.063Z,112.50
2018-06-12T06:20:55.064Z,118.13
2018-06-12T06:21:55.065Z,123.75
2018-06-12T06:22:55.067Z,123.75
2018-06-12T06:23:55.071Z,123.75
2018-06-12T06:24:55.067Z,123.75
2018-06-12T06:25:55.069Z,129.38
2018-06-12T06:26:55.074Z,129.38
2018-06-12T06:27:55.071Z,129.38
2018-06-12T06:28:55.073Z,129.38
2018-06-12T06:29:55.084Z,123.75
2018-06-12T06:30:55.074Z,118.13
2018-06-12T06:31:55.075Z,112.50
2018-06-12T06:32:55.077Z,112.50
2018-06-12T06:33:55.080Z,106.88
2018-06-12T06:34:55.107Z,106.88
2018-06-12T06:35:55.081Z,106.88
2018-06-12T06:36:55.135Z,106.88
2018-06-12T06:37:55.454Z,106.88
2018-06-12T06:38:55.087Z,106.88
2018-06-12T06:39:55.086Z,112.50
2018-06-12T06:40:55.089Z,112.50
2018-06-12T06:41:55.093Z,112.50
2018-06-12T06:42:55.094Z,118.13
2018-06-12T06:43:55.126Z,112.50
2018-06-12T06:44:55.093Z,112.50
2018-06-12T06:45:55.096Z,106.88
2018-06-12T06:46:55.101Z,101.25
2018-06-12T06:47:55.097Z,101.25
2018-06-12T06:48:55.100Z,101.25
2018-06-12T06:49:55.101Z,101.25
2018-06-12T06:50:55.116Z,101.25
2018-06-12T06:51:55.107Z,101.25
2018-06-12T06:52:55.120Z,95.63
2018-06-12T06:53:55.106Z,101.25
2018-06-12T06:54:55.111Z,95.63
2018-06-12T06:55:55.120Z,101.25
2018-06-12T06:56:55.110Z,101.25
2018-06-12T06:57:55.111Z,101.25
2018-06-12T06:58:55.164Z,106.88
2018-06-12T06:59:55.115Z,112.50
2018-06-12T07:00:55.116Z,106.88
2018-06-12T07:01:55.117Z,106.88
2018-06-12T07:02:55.119Z,112.50
2018-06-12T07:03:55.120Z,118.13
2018-06-12T07:04:55.120Z,129.38
2018-06-12T07:05:55.124Z,135.00
2018-06-12T07:06:55.123Z,146.25
2018-06-12T07:07:55.125Z,157.50
2018-06-12T07:08:55.127Z,168.75
2018-06-12T07:09:55.128Z,168.75
2018-06-12T07:10:55.129Z,174.38
2018-06-12T07:11:55.263Z,180.00
2018-06-12T07:12:55.133Z,191.25
2018-06-12T07:13:55.133Z,185.63
2018-06-12T07:14:55.149Z,180.00
2018-06-12T07:15:55.137Z,180.00
2018-06-12T07:16:55.137Z,168.75
2018-06-12T07:17:55.142Z,163.13
2018-06-12T07:18:55.142Z,151.88
2018-06-12T07:19:55.143Z,140.63
2018-06-12T07:20:55.148Z,135.00
2018-06-12T07:21:55.149Z,123.75
2018-06-12T07:22:55.152Z,118.13
2018-06-12T07:23:55.149Z,106.88
2018-06-12T07:24:55.627Z,101.25
2018-06-12T07:25:55.538Z,95.63
2018-06-12T07:26:55.197Z,90.00
2018-06-12T07:27:55.922Z,84.38
2018-06-12T07:28:56.569Z,90.00
2018-06-12T07:29:55.453Z,90.00
2018-06-12T07:30:55.393Z,84.38
2018-06-12T07:31:55.167Z,84.38
2018-06-12T07:32:55.219Z,90.00
2018-06-12T07:33:55.171Z,90.00
2018-06-12T07:34:55.170Z,95.63
2018-06-12T07:35:55.172Z,101.25
2018-06-12T07:36:55.181Z,101.25
2018-06-12T07:37:55.176Z,106.88
2018-06-12T07:38:55.178Z,112.50
2018-06-12T07:39:55.180Z,123.75
2018-06-12T07:40:55.182Z,129.38
2018-06-12T07:41:55.185Z,129.38
2018-06-12T07:42:55.189Z,140.63
2018-06-12T07:43:55.187Z,146.25
2018-06-12T07:44:55.188Z,157.50
2018-06-12T07:45:55.193Z,163.13
2018-06-12T07:46:55.197Z,168.75
2018-06-12T07:47:55.193Z,174.38
2018-06-12T07:48:55.230Z,174.38
2018-06-12T07:49:55.197Z,168.75
2018-06-12T07:50:55.202Z,168.75
2018-06-12T07:51:55.202Z,168.75
2018-06-12T07:52:55.204Z,163.13
2018-06-12T07:53:55.207Z,163.13
2018-06-12T07:54:55.224Z,157.50
2018-06-12T07:55:55.213Z,151.88
2018-06-12T07:56:55.211Z,146.25
2018-06-12T07:57:55.213Z,140.63
2018-06-12T07:58:55.216Z,140.63
2018-06-12T07:59:55.221Z,140.63
2018-06-12T08:00:55.268Z,140.63
2018-06-12T08:01:55.221Z,140.63
2018-06-12T08:02:55.224Z,140.63
2018-06-12T08:03:55.259Z,140.63
2018-06-12T08:04:55.226Z,140.63
2018-06-12T08:05:55.233Z,146.25
2018-06-12T08:06:55.249Z,151.88
2018-06-12T08:07:55.233Z,146.25
2018-06-12T08:08:55.235Z,151.88
2018-06-12T08:09:55.236Z,151.88
2018-06-12T08:10:55.237Z,157.50
2018-06-12T08:11:55.239Z,157.50
2018-06-12T08:12:55.308Z,163.13
2018-06-12T08:13:55.243Z,163.13
2018-06-12T08:14:55.247Z,168.75
2018-06-12T08:15:55.246Z,174.38
2018-06-12T08:16:55.248Z,185.63
2018-06-12T08:17:55.250Z,196.88
2018-06-12T08:18:55.254Z,202.50
2018-06-12T08:19:55.253Z,213.75
2018-06-12T08:20:55.256Z,225.00
2018-06-12T08:21:55.279Z,230.63
2018-06-12T08:22:55.259Z,230.63
2018-06-12T08:23:55.300Z,225.00
2018-06-12T08:24:55.268Z,202.50
2018-06-12T08:25:55.268Z,191.25
2018-06-12T08:26:55.268Z,180.00
2018-06-12T08:27:55.270Z,168.75
2018-06-12T08:28:55.363Z,163.13
2018-06-12T08:29:55.366Z,163.13
2018-06-12T08:30:55.278Z,168.75
2018-06-12T08:31:55.280Z,168.75
2018-06-12T08:32:55.283Z,174.38
2018-06-12T08:33:55.284Z,174.38
2018-06-12T08:34:55.320Z,180.00
2018-06-12T08:35:55.290Z,168.75
2018-06-12T08:36:55.293Z,174.38
2018-06-12T08:37:55.297Z,180.00
2018-06-12T08:38:55.298Z,185.63
2018-06-12T08:39:55.336Z,185.63
2018-06-12T08:40:55.328Z,191.25
2018-06-12T08:41:55.330Z,191.25
2018-06-12T08:42:55.314Z,191.25
2018-06-12T08:43:55.309Z,196.88
2018-06-12T08:44:55.318Z,202.50
2018-06-12T08:45:55.317Z,241.88
2018-06-12T08:46:55.320Z,253.13
2018-06-12T08:47:55.325Z,393.75
2018-06-12T08:48:55.325Z,421.88
2018-06-12T08:49:55.325Z,483.75
2018-06-12T08:50:55.329Z,472.50
2018-06-12T08:51:55.332Z,376.88
2018-06-12T08:52:55.335Z,472.50
2018-06-12T08:53:55.342Z,489.38
2018-06-12T08:54:55.348Z,511.88
2018-06-12T08:55:55.351Z,523.13
2018-06-12T08:56:55.353Z,393.75
2018-06-12T08:57:55.379Z,500.63
2018-06-12T08:58:55.372Z,534.38
2018-06-12T08:59:55.366Z,540.00
2018-06-12T09:00:55.372Z,551.25
2018-06-12T09:01:55.595Z,562.50
2018-06-12T09:02:55.392Z,585.00
2018-06-12T09:03:55.392Z,607.50
2018-06-12T09:04:55.394Z,618.75
2018-06-12T09:05:55.401Z,630.00
2018-06-12T09:06:55.427Z,652.50
2018-06-12T09:07:55.418Z,500.63
2018-06-12T09:08:55.422Z,675.00
2018-06-12T09:09:55.427Z,551.25
2018-06-12T09:10:55.433Z,680.63
2018-06-12T09:11:55.439Z,680.63
2018-06-12T09:12:55.447Z,725.63
2018-06-12T09:13:55.453Z,725.63
2018-06-12T09:14:55.462Z,748.13
2018-06-12T09:15:55.468Z,815.63
2018-06-12T09:16:55.480Z,652.50
2018-06-12T09:17:55.483Z,303.75
2018-06-12T09:18:55.489Z,461.25
2018-06-12T09:19:55.498Z,511.88
2018-06-12T09:20:55.510Z,551.25
2018-06-12T09:21:55.514Z,421.88
2018-06-12T09:22:55.527Z,568.13
2018-06-12T09:23:55.528Z,360.00
2018-06-12T09:24:55.551Z,303.75
2018-06-12T09:25:55.547Z,281.25
2018-06-12T09:26:55.553Z,303.75
2018-06-12T09:27:55.559Z,315.00
2018-06-12T09:28:55.571Z,315.00
2018-06-12T09:29:55.574Z,309.38
2018-06-12T09:30:55.583Z,320.63
2018-06-12T09:31:55.603Z,303.75
2018-06-12T09:32:55.605Z,303.75
2018-06-12T09:33:55.608Z,320.63
2018-06-12T09:34:55.614Z,303.75
2018-06-12T09:35:55.620Z,303.75
2018-06-12T09:36:55.625Z,528.75
2018-06-12T09:37:55.630Z,298.13
2018-06-12T09:38:55.639Z,360.00
2018-06-12T09:39:55.643Z,1192.50
2018-06-12T09:40:55.653Z,703.13
2018-06-12T09:41:55.656Z,675.00
2018-06-12T09:42:55.664Z,646.88
2018-06-12T09:43:55.669Z,765.00
2018-06-12T09:44:55.676Z,556.88
2018-06-12T09:45:55.682Z,421.88
2018-06-12T09:46:55.689Z,534.38
2018-06-12T09:47:55.694Z,444.38
2018-06-12T09:48:55.701Z,410.63
2018-06-12T09:49:55.709Z,646.88
2018-06-12T09:50:55.720Z,534.38
2018-06-12T09:51:55.723Z,399.38
2018-06-12T09:52:55.728Z,624.38
2018-06-12T09:53:55.739Z,331.88
2018-06-12T09:54:55.755Z,320.63
2018-06-12T09:55:55.760Z,281.25
2018-06-12T09:56:55.756Z,275.63
2018-06-12T09:57:55.763Z,275.63
2018-06-12T09:58:55.770Z,275.63
2018-06-12T09:59:55.777Z,286.88
2018-06-12T10:00:55.784Z,275.63
2018-06-12T10:01:55.791Z,270.00
2018-06-12T10:02:55.795Z,258.75
2018-06-12T10:03:55.803Z,247.50
2018-06-12T10:04:55.808Z,241.88
2018-06-12T10:05:55.814Z,236.25
2018-06-12T10:06:55.821Z,236.25
2018-06-12T10:07:55.883Z,230.63
2018-06-12T10:08:55.833Z,225.00
2018-06-12T10:09:55.851Z,230.63
2018-06-12T10:10:55.846Z,241.88
2018-06-12T10:11:55.851Z,264.38
2018-06-12T10:12:55.867Z,270.00
2018-06-12T10:13:55.864Z,253.13
2018-06-12T10:14:55.869Z,258.75
2018-06-12T10:15:55.873Z,275.63
2018-06-12T10:16:55.882Z,270.00
2018-06-12T10:17:55.885Z,275.63
2018-06-12T10:18:55.962Z,298.13
2018-06-12T10:19:55.897Z,298.13
2018-06-12T10:20:55.915Z,286.88
2018-06-12T10:21:55.907Z,286.88
2018-06-12T10:22:55.915Z,281.25
2018-06-12T10:23:55.921Z,264.38
2018-06-12T10:24:55.965Z,253.13
2018-06-12T10:25:55.928Z,253.13
2018-06-12T10:26:55.937Z,264.38
2018-06-12T10:27:55.942Z,270.00
2018-06-12T10:28:55.953Z,405.00
2018-06-12T10:29:55.954Z,393.75
2018-06-12T10:30:55.957Z,388.13
2018-06-12T10:31:55.961Z,303.75
2018-06-12T10:32:55.969Z,292.50
2018-06-12T10:33:56.007Z,281.25
2018-06-12T10:34:55.980Z,281.25
2018-06-12T10:35:55.986Z,303.75
2018-06-12T10:36:55.996Z,365.63
2018-06-12T10:37:55.996Z,393.75
2018-06-12T10:38:56.013Z,371.25
2018-06-12T10:39:56.005Z,708.75
2018-06-12T10:40:56.015Z,427.50
2018-06-12T10:41:56.018Z,450.00
2018-06-12T10:42:56.025Z,641.25
2018-06-12T10:43:56.028Z,618.75
2018-06-12T10:44:56.035Z,1063.13
2018-06-12T10:45:56.040Z,545.63
2018-06-12T10:46:56.047Z,843.75
2018-06-12T10:47:56.053Z,624.38
2018-06-12T10:48:56.078Z,562.50
2018-06-12T10:49:56.125Z,776.25
2018-06-12T10:50:56.072Z,945.00
2018-06-12T10:51:56.077Z,652.50
2018-06-12T10:52:56.089Z,995.63
2018-06-12T10:53:56.090Z,877.50
2018-06-12T10:54:56.102Z,1552.50
2018-06-12T10:55:56.105Z,1063.13
2018-06-12T10:56:56.111Z,1788.75
2018-06-12T10:57:56.116Z,1575.00
2018-06-12T10:58:56.126Z,900.00
2018-06-12T10:59:56.143Z,1209.38
2018-06-12T11:00:56.138Z,1096.88
2018-06-12T11:01:56.165Z,967.50
2018-06-12T11:02:56.155Z,1108.13
2018-06-12T11:03:56.162Z,849.38
2018-06-12T11:04:56.209Z,1299.38
2018-06-12T11:05:56.182Z,1361.25
2018-06-12T11:06:56.189Z,1839.38
2018-06-12T11:07:56.195Z,1299.38
2018-06-12T11:08:56.203Z,1659.38
2018-06-12T11:09:56.249Z,596.25
2018-06-12T11:10:56.469Z,410.63
2018-06-12T11:11:56.235Z,1040.63
2018-06-12T11:12:56.242Z,1096.88
2018-06-12T11:13:56.254Z,945.00
2018-06-12T11:14:56.255Z,1063.13
2018-06-12T11:15:56.261Z,1400.63
2018-06-12T11:16:56.277Z,1310.63
2018-06-12T11:17:56.280Z,1158.75
2018-06-12T11:18:56.303Z,635.63
2018-06-12T11:19:56.301Z,714.38
2018-06-12T11:20:56.306Z,652.50
2018-06-12T11:21:56.321Z,703.13
2018-06-12T11:22:56.324Z,691.88
2018-06-12T11:23:56.332Z,461.25
2018-06-12T11:24:56.342Z,365.63
2018-06-12T11:25:56.371Z,348.75
2018-06-12T11:26:56.360Z,354.38
2018-06-12T11:27:56.383Z,337.50
2018-06-12T11:28:56.380Z,331.88
2018-06-12T11:29:56.384Z,360.00
2018-06-12T11:30:56.399Z,388.13
2018-06-12T11:31:56.424Z,388.13
2018-06-12T11:32:56.417Z,371.25
2018-06-12T11:33:56.418Z,376.88
2018-06-12T11:34:56.425Z,354.38
2018-06-12T11:35:56.432Z,331.88
2018-06-12T11:36:56.440Z,343.13
2018-06-12T11:37:56.450Z,331.88
2018-06-12T11:38:56.458Z,337.50
2018-06-12T11:39:56.464Z,365.63
2018-06-12T11:40:56.472Z,326.25
2018-06-12T11:41:56.478Z,320.63
2018-06-12T11:42:56.490Z,298.13
2018-06-12T11:43:56.497Z,275.63
2018-06-12T11:44:56.501Z,258.75
2018-06-12T11:45:56.511Z,236.25
2018-06-12T11:46:56.518Z,225.00
2018-06-12T11:47:56.523Z,219.38
2018-06-12T11:48:56.531Z,219.38
2018-06-12T11:49:56.554Z,225.00
2018-06-12T11:50:56.589Z,236.25
2018-06-12T11:51:56.555Z,281.25
2018-06-12T11:52:56.575Z,286.88
2018-06-12T11:53:56.566Z,303.75
2018-06-12T11:54:56.579Z,320.63
2018-06-12T11:55:56.579Z,382.50
2018-06-12T11:56:56.594Z,534.38
2018-06-12T11:57:56.595Z,624.38
2018-06-12T11:58:56.607Z,472.50
2018-06-12T11:59:56.611Z,506.25
2018-06-12T12:00:56.617Z,545.63
2018-06-12T12:01:56.623Z,455.63
2018-06-12T12:02:56.634Z,736.88
2018-06-12T12:03:56.635Z,427.50
2018-06-12T12:04:56.644Z,371.25
2018-06-12T12:05:56.653Z,343.13
2018-06-12T12:06:56.662Z,337.50
2018-06-12T12:07:56.666Z,326.25
2018-06-12T12:08:56.684Z,337.50
2018-06-12T12:09:56.696Z,691.88
2018-06-12T12:10:56.712Z,500.63
2018-06-12T12:11:56.695Z,860.63
2018-06-12T12:12:56.701Z,1051.88
2018-06-12T12:13:56.735Z,1833.75
2018-06-12T12:14:56.723Z,675.00
2018-06-12T12:15:56.755Z,770.63
2018-06-12T12:16:56.753Z,1861.88
2018-06-12T12:17:56.755Z,1485.00
2018-06-12T12:18:56.755Z,849.38
2018-06-12T12:19:56.771Z,1895.63
2018-06-12T12:20:56.984Z,1906.88
2018-06-12T12:21:57.131Z,1800.00
2018-06-12T12:22:56.786Z,517.50
2018-06-12T12:23:56.791Z,360.00
2018-06-12T12:24:56.799Z,348.75
2018-06-12T12:25:56.813Z,438.75
2018-06-12T12:26:56.816Z,360.00
2018-06-12T12:27:56.828Z,450.00
2018-06-12T12:28:56.841Z,258.75
2018-06-12T12:29:56.843Z,236.25
2018-06-12T12:30:56.850Z,230.63
2018-06-12T12:31:56.859Z,253.13
2018-06-12T12:32:56.870Z,230.63
2018-06-12T12:33:56.876Z,191.25
2018-06-12T12:34:56.884Z,180.00
2018-06-12T12:35:56.892Z,174.38
2018-06-12T12:36:56.908Z,168.75
2018-06-12T12:37:56.910Z,163.13
2018-06-12T12:38:56.918Z,151.88
2018-06-12T12:39:56.926Z,151.88
2018-06-12T12:40:56.933Z,151.88
2018-06-12T12:41:56.940Z,163.13
2018-06-12T12:42:56.948Z,174.38
2018-06-12T12:43:56.953Z,264.38
2018-06-12T12:44:56.963Z,331.88
2018-06-12T12:45:56.971Z,298.13
2018-06-12T12:46:56.982Z,230.63
2018-06-12T12:47:56.985Z,213.75